Time;durP1;ratioP1;P1;durP2;ratioP2;P2;SDS_P1;SDS_P2;PMS_P1;PMS_P2;Temp;Humidity;BMP_temperature;BMP_pressure;BME280_temperature;BME280_humidity;BME280_pressure;Samples;Min_cycle;Max_cycle;Signal;HPM_P1;HPM_P2
2022/06/15 00:00:42;;;;;;;4.03;3.60;;;;;;;16.28;74.81;98232.28;5059866;28;20661;-80
2022/06/15 00:03:10;;;;;;;3.90;3.50;;;;;;;16.28;74.95;98226.94;5059539;28;20788;-80
2022/06/15 00:05:38;;;;;;;4.37;3.17;;;;;;;16.25;74.84;98235.25;5058685;28;20220;-80
2022/06/15 00:08:05;;;;;;;3.97;3.57;;;;;;;16.21;75.37;98233.00;5060046;28;20232;-80
2022/06/15 00:10:32;;;;;;;4.67;3.90;;;;;;;16.15;75.42;98234.38;5060211;28;20208;-80
2022/06/15 00:12:58;;;;;;;3.80;3.50;;;;;;;16.13;74.91;98233.69;5060881;28;20572;-80
2022/06/15 00:15:25;;;;;;;6.10;3.70;;;;;;;16.12;74.86;98235.66;5060317;28;20263;-81
2022/06/15 00:17:52;;;;;;;4.13;3.67;;;;;;;16.09;75.28;98229.59;5059554;28;20224;-81
2022/06/15 00:20:18;;;;;;;3.93;3.50;;;;;;;16.04;75.66;98228.34;5060138;28;20215;-81
2022/06/15 00:22:46;;;;;;;4.37;3.70;;;;;;;16.01;75.51;98228.59;5060432;28;20212;-80
2022/06/15 00:25:13;;;;;;;3.73;3.23;;;;;;;15.98;75.22;98229.69;5059951;28;20212;-80
2022/06/15 00:27:40;;;;;;;5.03;3.60;;;;;;;15.98;75.29;98226.22;5059911;28;20309;-80
2022/06/15 00:30:09;;;;;;;4.00;3.60;;;;;;;15.93;75.78;98230.25;5058156;28;20204;-80
2022/06/15 00:32:35;;;;;;;4.17;3.60;;;;;;;15.86;76.46;98229.13;5059976;28;20208;-81
2022/06/15 00:35:02;;;;;;;5.17;3.60;;;;;;;15.82;77.00;98233.06;5060131;28;20222;-81
2022/06/15 00:37:28;;;;;;;6.10;3.57;;;;;;;15.82;77.26;98233.06;5059958;28;20301;-82
2022/06/15 00:39:56;;;;;;;3.87;3.47;;;;;;;15.83;77.37;98232.91;5059622;28;20215;-79
2022/06/15 00:42:23;;;;;;;4.03;3.63;;;;;;;15.84;76.83;98233.75;5059929;28;20204;-80
2022/06/15 00:44:50;;;;;;;4.17;3.53;;;;;;;15.83;77.04;98234.72;5059907;28;20219;-79
2022/06/15 00:47:22;;;;;;;3.73;3.30;;;;;;;15.83;76.85;98216.06;5060184;28;20266;-79
2022/06/15 00:49:53;;;;;;;4.43;3.57;;;;;;;15.79;77.12;98217.31;5059074;28;20219;-80
2022/06/15 00:52:28;;;;;;;4.83;3.60;;;;;;;15.73;77.59;98207.19;5059409;28;20208;-81
2022/06/15 00:54:56;;;;;;;4.50;3.50;;;;;;;15.71;78.02;98211.84;5059036;28;20234;-81
2022/06/15 00:57:23;;;;;;;6.03;4.13;;;;;;;15.64;78.64;98200.03;5058290;28;20583;-81
2022/06/15 00:59:54;;;;;;;4.20;3.60;;;;;;;15.63;79.16;98204.50;5059258;28;20216;-81
2022/06/15 01:02:21;;;;;;;5.40;3.87;;;;;;;15.58;80.06;98201.41;5059763;28;20212;-80
2022/06/15 01:04:52;;;;;;;4.10;3.70;;;;;;;15.52;80.55;98201.13;5055575;28;20208;-80
2022/06/15 01:07:42;;;;;;;4.90;4.10;;;;;;;15.46;81.15;98199.00;5056203;28;20222;-80
2022/06/15 01:10:21;;;;;;;4.40;4.00;;;;;;;15.32;82.62;98197.53;5056358;28;20208;-79
2022/06/15 01:12:59;;;;;;;4.63;4.00;;;;;;;15.26;83.21;98191.84;5055772;28;20208;-82
2022/06/15 01:15:36;;;;;;;4.73;3.87;;;;;;;15.22;83.09;98201.09;5056152;28;20212;-81
2022/06/15 01:18:15;;;;;;;4.60;4.10;;;;;;;15.15;84.24;98190.13;5055898;28;20211;-80
2022/06/15 01:20:52;;;;;;;4.57;4.17;;;;;;;15.10;84.49;98186.19;5055691;28;20212;-80
2022/06/15 01:23:55;;;;;;;5.43;3.90;;;;;;;14.98;85.88;98190.72;5055520;28;20625;-82
2022/06/15 01:26:59;;;;;;;4.33;3.80;;;;;;;14.93;86.13;98190.31;5055855;28;20212;-81
2022/06/15 01:29:59;;;;;;;4.93;4.10;;;;;;;14.85;86.89;98186.59;5055475;28;20235;-81
2022/06/15 01:32:32;;;;;;;4.90;4.07;;;;;;;14.78;87.79;98180.13;5055232;28;20684;-80
2022/06/15 01:35:08;;;;;;;4.63;4.23;;;;;;;14.75;88.63;98191.00;5055918;28;20212;-81
2022/06/15 01:37:39;;;;;;;4.43;4.03;;;;;;;14.72;88.76;98192.09;5055242;28;20228;-80
2022/06/15 01:40:13;;;;;;;4.30;3.90;;;;;;;14.73;88.46;98187.66;5055864;28;20208;-80
2022/06/15 01:42:44;;;;;;;5.63;4.10;;;;;;;14.69;88.55;98186.22;5055612;28;20204;-80
2022/06/15 01:45:16;;;;;;;4.70;4.03;;;;;;;14.70;88.05;98185.22;5055403;28;20215;-80
2022/06/15 01:47:45;;;;;;;4.93;4.00;;;;;;;14.67;88.03;98188.16;5053855;28;20684;-81
2022/06/15 01:50:16;;;;;;;4.13;3.60;;;;;;;14.63;88.32;98186.72;5055026;28;20689;-79
2022/06/15 01:52:45;;;;;;;4.57;4.13;;;;;;;14.57;88.95;98179.25;5055354;28;20208;-80
2022/06/15 01:55:19;;;;;;;4.63;4.20;;;;;;;14.55;88.87;98181.22;5055362;28;20678;-81
2022/06/15 01:57:49;;;;;;;4.73;4.20;;;;;;;14.47;89.72;98171.22;5054833;28;20214;-80
2022/06/15 02:00:19;;;;;;;5.17;4.17;;;;;;;14.44;89.83;98175.94;5055124;28;20211;-80
2022/06/15 02:02:54;;;;;;;5.00;3.80;;;;;;;14.41;89.77;98169.06;5055100;28;20212;-80
2022/06/15 02:05:29;;;;;;;5.47;4.00;;;;;;;14.43;89.73;98168.94;5055126;28;20203;-81
2022/06/15 02:08:03;;;;;;;6.13;4.13;;;;;;;14.43;90.04;98179.59;5054863;28;20689;-80
2022/06/15 02:10:35;;;;;;;4.23;3.83;;;;;;;14.44;89.47;98170.63;5055125;28;20211;-81
2022/06/15 02:13:09;;;;;;;4.93;3.80;;;;;;;14.52;88.24;98176.13;5053370;28;20208;-80
2022/06/15 02:15:41;;;;;;;4.10;3.80;;;;;;;14.53;88.17;98177.81;5054662;28;20666;-81
2022/06/15 02:18:12;;;;;;;4.53;4.03;;;;;;;14.50;88.71;98180.75;5054483;28;20693;-80
2022/06/15 02:20:44;;;;;;;4.27;3.87;;;;;;;14.50;88.84;98180.75;5055041;28;20208;-81
2022/06/15 02:23:13;;;;;;;4.50;4.10;;;;;;;14.44;89.45;98170.63;5054724;28;20234;-80
2022/06/15 02:25:44;;;;;;;4.87;3.93;;;;;;;14.47;89.26;98175.69;5054600;28;20218;-81
2022/06/15 02:28:12;;;;;;;4.80;3.83;;;;;;;14.46;89.25;98179.31;5054512;28;20227;-81
2022/06/15 02:30:42;;;;;;;6.70;4.13;;;;;;;14.40;89.24;98174.50;5054640;28;20295;-80
2022/06/15 02:33:12;;;;;;;5.60;4.17;;;;;;;14.39;89.45;98181.66;5054308;28;20629;-80
2022/06/15 02:35:39;;;;;;;4.97;4.47;;;;;;;14.35;89.14;98176.75;5054859;28;20216;-80
2022/06/15 02:38:05;;;;;;;4.07;3.70;;;;;;;14.32;89.87;98176.97;5053848;28;20236;-80
2022/06/15 02:40:33;;;;;;;4.00;3.67;;;;;;;14.26;90.39;98174.84;5053614;28;20204;-80
2022/06/15 02:43:02;;;;;;;5.40;4.17;;;;;;;14.20;90.46;98167.38;5054562;28;20568;-80
2022/06/15 02:45:34;;;;;;;6.67;3.73;;;;;;;14.12;90.83;98169.78;5054411;28;20319;-80
2022/06/15 02:48:03;;;;;;;4.47;4.07;;;;;;;14.08;91.60;98174.53;5054416;28;20212;-81
2022/06/15 02:50:36;;;;;;;4.33;3.87;;;;;;;14.02;92.13;98168.84;5054186;28;20212;-80
2022/06/15 02:53:07;;;;;;;4.17;3.77;;;;;;;14.01;92.20;98175.13;5054711;28;20214;-80
2022/06/15 02:55:35;;;;;;;4.90;4.27;;;;;;;13.98;92.25;98170.91;5054127;28;20239;-80
2022/06/15 02:58:07;;;;;;;5.53;4.17;;;;;;;13.94;93.05;98161.50;5054603;28;20210;-80
2022/06/15 03:00:33;;;;;;;4.63;4.13;;;;;;;13.96;93.39;98174.66;5054620;28;20571;-80
2022/06/15 03:03:01;;;;;;;4.50;4.07;;;;;;;13.93;93.73;98165.13;5053989;28;20212;-80
2022/06/15 03:05:28;;;;;;;5.43;4.60;;;;;;;13.94;94.64;98164.16;5052603;28;20212;-80
2022/06/15 03:07:54;;;;;;;5.87;4.90;;;;;;;13.96;95.35;98161.38;5053988;28;20208;-80
2022/06/15 03:10:21;;;;;;;5.40;4.90;;;;;;;13.96;96.30;98172.00;5053777;28;20242;-80
2022/06/15 03:12:48;;;;;;;6.33;5.33;;;;;;;13.93;96.65;98174.94;5054388;28;20212;-80
2022/06/15 03:15:15;;;;;;;5.57;5.03;;;;;;;13.88;97.03;98171.81;5054534;28;20204;-80
2022/06/15 03:17:41;;;;;;;5.83;5.23;;;;;;;13.89;97.50;98173.50;5053789;28;20209;-80
2022/06/15 03:20:11;;;;;;;5.83;5.27;;;;;;;13.85;98.10;98167.59;5053902;28;20222;-80
2022/06/15 03:22:38;;;;;;;7.20;5.07;;;;;;;13.83;98.40;98174.84;5053938;28;20212;-80
2022/06/15 03:25:05;;;;;;;6.37;5.13;;;;;;;13.84;98.35;98175.66;5053805;28;20212;-80
2022/06/15 03:27:32;;;;;;;6.43;4.80;;;;;;;13.84;98.29;98170.34;5053479;28;20299;-80
2022/06/15 03:30:00;;;;;;;5.27;4.63;;;;;;;13.80;98.51;98169.75;5052057;28;20251;-80
2022/06/15 03:32:26;;;;;;;5.67;4.83;;;;;;;13.74;98.20;98161.47;5053640;28;20270;-80
2022/06/15 03:34:53;;;;;;;6.07;5.17;;;;;;;13.62;99.62;98165.13;5053696;28;20210;-81
2022/06/15 03:37:21;;;;;;;5.50;5.00;;;;;;;13.59;99.43;98160.91;5053832;28;20236;-79
2022/06/15 03:39:48;;;;;;;6.60;5.00;;;;;;;13.50;100.00;98161.63;5053493;28;20226;-80
2022/06/15 03:42:18;;;;;;;5.80;5.07;;;;;;;13.47;100.00;98161.88;5054287;28;20549;-80
2022/06/15 03:44:45;;;;;;;5.80;5.20;;;;;;;13.49;100.00;98167.03;5053549;28;20212;-80
2022/06/15 03:47:12;;;;;;;7.03;5.13;;;;;;;13.51;100.00;98158.00;5054041;28;20216;-79
2022/06/15 03:49:39;;;;;;;6.03;4.97;;;;;;;13.55;100.00;98158.59;5053162;28;20240;-79
2022/06/15 03:52:08;;;;;;;5.67;5.07;;;;;;;13.61;100.00;98163.41;5053387;28;20212;-79
2022/06/15 03:54:36;;;;;;;6.17;5.30;;;;;;;13.56;100.00;98163.78;5053019;28;20257;-79
2022/06/15 03:57:04;;;;;;;6.03;5.37;;;;;;;13.56;100.00;98165.63;5051293;28;20210;-80
2022/06/15 03:59:31;;;;;;;5.87;5.07;;;;;;;13.57;100.00;98162.00;5053323;28;20208;-79
2022/06/15 04:01:57;;;;;;;6.10;4.63;;;;;;;13.62;100.00;98159.81;5053231;28;20211;-81
2022/06/15 04:04:24;;;;;;;5.23;4.43;;;;;;;13.66;100.00;98162.09;5053568;28;20632;-80
2022/06/15 04:06:51;;;;;;;5.27;4.70;;;;;;;13.66;100.00;98166.53;5053818;28;20216;-79
2022/06/15 04:09:21;;;;;;;6.67;5.07;;;;;;;13.70;100.00;98168.00;5052683;28;20232;-80
2022/06/15 04:12:08;;;;;;;5.93;5.33;;;;;;;13.73;100.00;98167.72;5052768;28;20214;-79
2022/06/15 04:14:35;;;;;;;6.03;4.77;;;;;;;13.76;100.00;98172.81;5053085;28;20208;-80
2022/06/15 04:17:03;;;;;;;6.07;5.27;;;;;;;13.84;100.00;98170.34;5053245;28;20565;-81
2022/06/15 04:19:31;;;;;;;6.93;5.67;;;;;;;13.89;100.00;98174.34;5053349;28;20208;-80
2022/06/15 04:21:58;;;;;;;6.30;5.40;;;;;;;13.98;100.00;98170.06;5051281;28;20204;-80
2022/06/15 04:24:26;;;;;;;6.90;5.30;;;;;;;14.07;99.53;98167.53;5053189;28;20212;-80
2022/06/15 04:26:55;;;;;;;7.03;5.50;;;;;;;14.09;99.08;98172.69;5053033;28;20204;-80
2022/06/15 04:29:22;;;;;;;6.00;5.10;;;;;;;14.06;99.53;98179.09;5052673;28;20236;-80
2022/06/15 04:31:49;;;;;;;6.20;5.60;;;;;;;14.09;100.00;98175.34;5052675;28;20213;-80
2022/06/15 04:34:15;;;;;;;7.57;5.90;;;;;;;14.10;100.00;98185.00;5053129;28;20212;-80
2022/06/15 04:36:44;;;;;;;6.23;5.27;;;;;;;14.20;100.00;98185.97;5052568;28;20208;-80
2022/06/15 04:39:13;;;;;;;8.17;6.23;;;;;;;14.29;99.58;98182.56;5054291;28;20242;-80
2022/06/15 04:41:41;;;;;;;8.20;6.37;;;;;;;14.47;97.41;98184.50;5056977;28;20208;-80
2022/06/15 04:44:11;;;;;;;7.77;6.67;;;;;;;14.57;96.23;98188.09;5056959;28;20208;-80
2022/06/15 04:46:38;;;;;;;8.83;6.47;;;;;;;14.64;95.58;98183.09;5056835;28;20223;-79
2022/06/15 04:49:05;;;;;;;8.77;6.63;;;;;;;14.68;95.24;98190.69;5055053;28;20267;-80
2022/06/15 04:51:40;;;;;;;8.17;6.50;;;;;;;14.87;93.25;98190.81;5056770;28;20273;-80
2022/06/15 04:54:09;;;;;;;8.67;6.30;;;;;;;15.05;92.09;98193.72;5056856;28;20308;-79
2022/06/15 04:56:36;;;;;;;7.10;6.17;;;;;;;15.61;89.53;98186.97;5056290;28;20250;-79
2022/06/15 04:59:03;;;;;;;6.40;5.33;;;;;;;16.47;86.75;98189.63;5056718;28;20573;-79
2022/06/15 05:01:31;;;;;;;7.63;5.67;;;;;;;17.44;81.88;98187.47;5056226;28;20216;-80
2022/06/15 05:03:58;;;;;;;7.93;5.70;;;;;;;18.34;76.22;98193.75;5056129;28;20674;-80
2022/06/15 05:06:33;;;;;;;8.03;5.47;;;;;;;19.23;71.50;98183.63;5056319;28;20304;-80
2022/06/15 05:09:00;;;;;;;6.30;5.70;;;;;;;20.03;66.53;98183.13;5056440;28;20242;-82
2022/06/15 05:11:27;;;;;;;6.20;5.37;;;;;;;20.82;62.03;98185.13;5056691;28;20212;-81
2022/06/15 05:13:54;;;;;;;7.90;5.47;;;;;;;21.48;59.48;98199.16;5054963;28;20215;-80
2022/06/15 05:16:21;;;;;;;7.43;5.30;;;;;;;22.14;56.71;98193.38;5056791;28;20211;-81
2022/06/15 05:18:49;;;;;;;6.07;5.23;;;;;;;22.75;54.28;98185.25;5055867;28;20212;-80
2022/06/15 05:21:16;;;;;;;8.90;5.70;;;;;;;23.21;52.91;98195.81;5056303;28;20216;-80
2022/06/15 05:23:42;;;;;;;7.93;6.03;;;;;;;23.68;51.20;98188.22;5056171;28;20211;-80
2022/06/15 05:26:09;;;;;;;6.03;5.37;;;;;;;24.06;50.21;98187.09;5056121;28;20211;-80
2022/06/15 05:28:37;;;;;;;7.20;5.30;;;;;;;24.41;49.55;98191.69;5056142;28;20673;-79
2022/06/15 05:31:04;;;;;;;6.20;5.60;;;;;;;24.80;48.62;98196.69;5056663;28;20231;-79
2022/06/15 05:33:32;;;;;;;8.50;5.33;;;;;;;25.04;47.54;98194.41;5055649;28;20559;-81
2022/06/15 05:36:04;;;;;;;8.03;5.83;;;;;;;25.32;46.48;98191.75;5055445;28;20217;-81
2022/06/15 05:38:30;;;;;;;6.80;5.00;;;;;;;25.52;46.00;98188.16;5054904;28;20238;-80
2022/06/15 05:40:57;;;;;;;6.80;5.17;;;;;;;25.68;45.27;98187.88;5055101;28;20212;-80
2022/06/15 05:43:23;;;;;;;5.87;5.00;;;;;;;25.88;45.16;98187.94;5055644;28;20204;-80
2022/06/15 05:45:50;;;;;;;7.13;5.43;;;;;;;26.11;44.24;98183.94;5055530;28;20212;-79
2022/06/15 05:48:17;;;;;;;8.03;5.53;;;;;;;26.42;43.77;98192.41;5055592;28;20216;-80
2022/06/15 05:50:43;;;;;;;7.27;5.47;;;;;;;26.81;43.30;98180.84;5054305;28;20239;-79
2022/06/15 05:53:11;;;;;;;7.07;4.90;;;;;;;27.10;42.63;98175.84;5055256;28;20208;-80
2022/06/15 05:55:37;;;;;;;6.50;5.53;;;;;;;27.34;41.41;98177.97;5055245;28;20212;-82
2022/06/15 05:58:06;;;;;;;8.63;5.40;;;;;;;27.58;41.25;98180.03;5054726;28;20214;-81
2022/06/15 06:00:33;;;;;;;7.00;5.27;;;;;;;27.85;40.52;98170.78;5055096;28;20250;-81
2022/06/15 06:02:59;;;;;;;5.87;4.93;;;;;;;28.00;40.15;98169.47;5054975;28;20226;-81
2022/06/15 06:05:26;;;;;;;7.20;5.37;;;;;;;28.28;39.62;98170.00;5053679;28;20212;-81
2022/06/15 06:07:54;;;;;;;5.53;4.50;;;;;;;28.54;38.47;98174.47;5055084;28;20212;-80
2022/06/15 06:10:22;;;;;;;5.93;4.83;;;;;;;28.73;38.50;98177.09;5054982;28;20791;-80
2022/06/15 06:12:48;;;;;;;5.50;4.73;;;;;;;28.97;37.46;98178.22;5054871;28;20579;-80
2022/06/15 06:15:15;;;;;;;4.73;4.27;;;;;;;29.09;37.28;98176.47;5054502;28;20250;-80
2022/06/15 06:17:41;;;;;;;6.03;4.20;;;;;;;29.26;37.16;98174.81;5054405;28;20673;-81
2022/06/15 06:20:10;;;;;;;4.77;4.03;;;;;;;29.47;37.01;98186.16;5054363;28;20262;-81
2022/06/15 06:22:36;;;;;;;5.43;4.00;;;;;;;29.62;36.78;98183.97;5054740;28;20216;-81
2022/06/15 06:25:03;;;;;;;4.13;3.50;;;;;;;29.69;36.38;98183.88;5054262;28;20680;-81
2022/06/15 06:27:31;;;;;;;4.27;3.87;;;;;;;29.74;35.69;98184.03;5054093;28;20683;-81
2022/06/15 06:29:58;;;;;;;3.67;3.13;;;;;;;29.84;35.69;98187.09;5054125;28;20290;-80
2022/06/15 06:32:24;;;;;;;7.65;3.50;;;;;;;29.97;35.14;98186.94;5053530;28;20201;-81
2022/06/15 06:34:51;;;;;;;3.93;3.37;;;;;;;30.21;36.20;98188.78;5054502;28;20211;-80
2022/06/15 06:37:18;;;;;;;3.88;3.33;;;;;;;30.43;35.43;98187.22;5054074;28;20246;-80
2022/06/15 06:39:44;;;;;;;3.60;3.28;;;;;;;30.47;34.62;98182.97;5054360;28;20218;-80
2022/06/15 06:42:12;;;;;;;5.53;3.63;;;;;;;30.47;34.28;98180.25;5054293;28;20319;-81
2022/06/15 06:44:39;;;;;;;8.57;3.20;;;;;;;30.40;34.62;98177.63;5054265;28;20247;-81
2022/06/15 06:47:08;;;;;;;3.30;3.00;;;;;;;30.53;34.67;98191.09;5054089;28;20212;-81
2022/06/15 06:49:36;;;;;;;6.53;3.50;;;;;;;30.65;33.99;98180.25;5053753;28;20228;-81
2022/06/15 06:52:03;;;;;;;3.72;3.42;;;;;;;30.61;33.31;98187.19;5054072;28;20572;-81
2022/06/15 06:54:31;;;;;;;7.68;3.67;;;;;;;30.52;33.97;98191.31;5054227;28;20307;-82
2022/06/15 06:56:58;;;;;;;4.57;3.50;;;;;;;30.63;33.75;98185.91;5052200;28;20254;-81
2022/06/15 06:59:25;;;;;;;5.55;3.30;;;;;;;30.73;33.79;98182.63;5053969;28;20674;-81
2022/06/15 07:01:52;;;;;;;3.40;3.03;;;;;;;30.85;33.93;98187.09;5053030;28;20603;-80
2022/06/15 07:04:19;;;;;;;4.10;3.17;;;;;;;30.78;34.12;98185.50;5054085;28;20204;-81
2022/06/15 07:06:46;;;;;;;6.20;3.33;;;;;;;30.63;33.79;98182.34;5054067;28;20220;-82
2022/06/15 07:09:14;;;;;;;4.70;3.13;;;;;;;30.18;34.36;98178.31;5053662;28;20208;-81
2022/06/15 07:11:42;;;;;;;3.80;3.30;;;;;;;29.55;35.48;98180.47;5053325;28;20251;-82
2022/06/15 07:14:09;;;;;;;4.55;3.00;;;;;;;28.78;36.74;98179.13;5054096;28;20219;-81
2022/06/15 07:16:36;;;;;;;3.92;3.25;;;;;;;27.55;38.77;98180.44;5054182;28;20246;-83
2022/06/15 07:19:04;;;;;;;3.60;2.90;;;;;;;26.38;40.97;98188.41;5053801;28;20208;-82
2022/06/15 07:21:31;;;;;;;4.18;3.05;;;;;;;25.48;42.33;98191.47;5053125;28;20303;-80
2022/06/15 07:23:59;;;;;;;4.35;3.20;;;;;;;24.85;44.15;98181.56;5052617;28;20574;-81
2022/06/15 07:26:29;;;;;;;3.83;3.20;;;;;;;24.43;44.87;98186.91;5053286;28;20586;-81
2022/06/15 07:28:56;;;;;;;3.37;3.07;;;;;;;24.10;45.64;98177.59;5053210;28;20743;-80
2022/06/15 07:31:25;;;;;;;3.73;3.23;;;;;;;23.94;47.01;98180.50;5053251;28;20238;-81
2022/06/15 07:33:51;;;;;;;6.20;3.50;;;;;;;23.86;46.38;98188.69;5053180;28;20207;-82
2022/06/15 07:36:20;;;;;;;3.70;3.20;;;;;;;23.85;46.80;98189.72;5053513;28;20285;-81
2022/06/15 07:38:46;;;;;;;4.37;3.03;;;;;;;23.86;47.92;98191.38;5053736;28;20232;-81
2022/06/15 07:41:13;;;;;;;4.90;3.70;;;;;;;23.82;48.13;98184.69;5053486;28;20204;-82
2022/06/15 07:43:40;;;;;;;4.00;3.00;;;;;;;23.83;48.59;98189.06;5053176;28;20223;-81
2022/06/15 07:46:07;;;;;;;3.60;3.30;;;;;;;23.88;48.24;98189.34;5053496;28;20216;-81
2022/06/15 07:51:33;;;;;;;5.20;3.60;;;;;;;23.88;46.59;98189.34;5053272;28;20278;-81
2022/06/15 07:54:02;;;;;;;4.60;3.50;;;;;;;23.82;46.13;98189.22;5053401;28;20616;-80
2022/06/15 07:56:28;;;;;;;5.17;3.30;;;;;;;23.75;46.50;98189.16;5053065;28;20740;-79
2022/06/15 07:58:55;;;;;;;5.73;3.63;;;;;;;23.75;46.78;98188.31;5053028;28;20214;-79
2022/06/15 08:01:23;;;;;;;4.87;3.27;;;;;;;23.71;47.22;98187.03;5053140;28;20216;-80
2022/06/15 08:03:50;;;;;;;4.03;3.10;;;;;;;23.79;48.03;98187.78;5053279;28;20208;-79
2022/06/15 08:06:17;;;;;;;4.57;3.60;;;;;;;23.93;47.53;98196.88;5052923;28;20752;-80
2022/06/15 08:08:45;;;;;;;3.87;3.30;;;;;;;23.88;47.26;98197.47;5053581;28;20223;-80
2022/06/15 08:11:12;;;;;;;5.30;3.40;;;;;;;23.92;46.99;98201.47;5053519;28;20227;-81
2022/06/15 08:13:39;;;;;;;5.13;3.03;;;;;;;24.01;47.83;98197.63;5053429;28;20204;-79
2022/06/15 08:16:06;;;;;;;4.90;3.30;;;;;;;24.08;47.47;98193.13;5056977;28;20208;-79
2022/06/15 08:18:36;;;;;;;4.50;3.13;;;;;;;24.23;47.61;98187.72;5057176;28;20211;-80
2022/06/15 08:21:04;;;;;;;4.60;3.30;;;;;;;;;;5057044;28;20204;-79
2022/06/15 08:23:35;;;;;;;5.13;3.37;;;;;;;24.21;46.72;98190.59;5056806;28;20214;-79
2022/06/15 08:26:07;;;;;;;4.53;3.40;;;;;;;24.21;46.95;98192.47;5056619;28;20212;-81
2022/06/15 08:28:38;;;;;;;3.83;3.23;;;;;;;24.22;46.38;98197.69;5056916;28;20208;-81
2022/06/15 08:31:05;;;;;;;5.13;3.50;;;;;;;24.13;46.98;98193.41;5056322;28;20235;-81
2022/06/15 08:33:31;;;;;;;5.63;3.30;;;;;;;24.20;47.02;98188.94;5056802;28;20200;-81
2022/06/15 08:35:58;;;;;;;5.57;3.50;;;;;;;24.40;46.92;98190.03;5056321;28;20212;-81
2022/06/15 08:38:27;;;;;;;3.67;3.30;;;;;;;24.48;46.84;98194.44;5056795;28;20598;-80
2022/06/15 08:40:57;;;;;;;4.03;3.23;;;;;;;24.58;45.65;98193.16;5055138;28;20204;-80
2022/06/15 08:43:37;;;;;;;4.70;3.60;;;;;;;24.82;46.12;98192.75;5056679;28;20208;-81
2022/06/15 08:46:14;;;;;;;6.57;3.47;;;;;;;24.74;45.55;98184.78;5057073;28;20239;-79
2022/06/15 08:48:58;;;;;;;3.57;3.10;;;;;;;24.77;45.44;98187.09;5056766;28;20215;-79
2022/06/15 08:51:30;;;;;;;4.30;3.10;;;;;;;24.53;45.40;98192.00;5056145;28;20274;-80
2022/06/15 08:54:03;;;;;;;3.73;3.30;;;;;;;24.58;46.46;98185.06;5056215;28;20214;-80
2022/06/15 08:56:35;;;;;;;3.67;3.20;;;;;;;24.75;46.20;98191.03;5056199;28;20204;-79
2022/06/15 08:59:10;;;;;;;4.40;3.37;;;;;;;24.91;45.57;98188.91;5056367;28;20216;-80
2022/06/15 09:01:41;;;;;;;3.67;3.20;;;;;;;24.89;46.44;98195.53;5056657;28;20207;-80
2022/06/15 09:04:21;;;;;;;5.50;3.67;;;;;;;25.03;46.37;98192.75;5056872;28;20211;-79
2022/06/15 09:06:58;;;;;;;3.88;3.00;;;;;;;25.18;46.18;98195.38;5054811;28;20207;-82
2022/06/15 09:09:39;;;;;;;4.40;3.13;;;;;;;25.34;46.00;98195.94;5055933;28;20215;-79
2022/06/15 09:15:11;;;;;;;3.78;2.92;;;;;;;25.55;41.60;98198.59;5056646;28;20211;-80
2022/06/15 09:17:39;;;;;;;3.70;2.83;;;;;;;25.62;43.55;98194.06;5056243;28;20579;-79
2022/06/15 09:20:09;;;;;;;3.37;2.93;;;;;;;25.75;43.62;98188.72;5056193;28;20303;-79
2022/06/15 09:22:40;;;;;;;3.43;2.80;;;;;;;25.87;43.08;98191.69;5057131;28;20208;-80
2022/06/15 09:25:14;;;;;;;4.40;3.10;;;;;;;25.89;43.11;98193.19;5055354;28;20727;-79
2022/06/15 09:27:45;;;;;;;4.17;3.00;;;;;;;25.81;41.76;98198.75;5055995;28;20212;-80
2022/06/15 09:30:18;;;;;;;3.00;2.80;;;;;;;25.94;42.71;98198.00;5056207;28;20226;-80
2022/06/15 09:32:51;;;;;;;3.30;2.60;;;;;;;26.07;41.69;98201.63;5054944;28;20204;-80
2022/06/15 09:35:24;;;;;;;3.58;2.80;;;;;;;26.18;40.36;98192.09;5055738;28;20211;-80
2022/06/15 09:37:54;;;;;;;3.13;2.70;;;;;;;26.38;41.64;98195.69;5056265;28;20304;-81
2022/06/15 09:40:21;;;;;;;3.85;3.00;;;;;;;26.49;41.94;98192.41;5056159;28;20299;-80
2022/06/15 09:43:03;;;;;;;3.97;3.20;;;;;;;26.51;41.99;98188.44;5056350;28;20291;-80
2022/06/15 09:45:36;;;;;;;3.50;2.80;;;;;;;26.53;40.80;98194.53;5056040;28;20204;-81
2022/06/15 09:48:10;;;;;;;4.18;3.30;;;;;;;26.52;41.09;98181.97;5056136;28;20212;-80
2022/06/15 09:50:44;;;;;;;3.70;2.90;;;;;;;26.57;40.72;98184.94;5055774;28;20227;-78
2022/06/15 09:53:26;;;;;;;7.32;3.20;;;;;;;26.66;40.90;98183.75;5055557;28;20204;-82
2022/06/15 09:55:56;;;;;;;4.25;3.15;;;;;;;26.71;40.88;98180.41;5056027;28;20258;-80
2022/06/15 09:58:26;;;;;;;4.30;3.00;;;;;;;26.71;41.26;98180.41;5054484;28;20258;-80
2022/06/15 10:00:54;;;;;;;5.32;3.13;;;;;;;26.75;41.59;98185.19;5055954;28;20574;-79
2022/06/15 10:03:25;;;;;;;3.40;3.10;;;;;;;26.84;40.42;98180.41;5055627;28;20212;-84
2022/06/15 10:05:55;;;;;;;3.70;3.15;;;;;;;26.95;39.93;98188.75;5055522;28;20582;-82
2022/06/15 10:08:23;;;;;;;4.75;3.03;;;;;;;26.92;39.45;98189.19;5055265;28;20212;-81
2022/06/15 10:10:52;;;;;;;4.03;2.80;;;;;;;26.81;40.04;98184.38;5055242;28;20228;-81
2022/06/15 10:13:30;;;;;;;3.70;3.25;;;;;;;26.82;40.11;98182.50;5055117;28;20204;-82
2022/06/15 10:16:00;;;;;;;4.65;3.25;;;;;;;26.94;41.31;98183.56;5054505;28;20218;-82
2022/06/15 10:18:36;;;;;;;5.07;2.90;;;;;;;27.00;40.90;98180.03;5054403;28;20208;-81
2022/06/15 10:21:11;;;;;;;2.90;2.47;;;;;;;27.01;37.13;98182.50;5054774;28;20254;-83
2022/06/15 10:23:43;;;;;;;2.70;2.50;;;;;;;27.10;36.82;98179.38;5052950;28;20307;-83
2022/06/15 10:26:23;;;;;;;3.55;2.60;;;;;;;27.39;37.27;98178.16;5054992;28;20298;-84
2022/06/15 10:28:50;;;;;;;4.47;2.70;;;;;;;27.44;34.89;98173.75;5054976;28;20219;-84
2022/06/15 10:31:26;;;;;;;3.10;2.78;;;;;;;27.58;35.22;98172.69;5054899;28;20238;-82
2022/06/15 10:33:55;;;;;;;2.90;2.60;;;;;;;27.46;34.79;98177.09;5055397;28;20239;-82
2022/06/15 10:36:27;;;;;;;2.40;2.20;;;;;;;27.42;32.96;98178.59;5055638;28;20261;-84
2022/06/15 10:38:59;;;;;;;2.53;2.08;;;;;;;27.49;32.22;98163.13;5054842;28;20246;-83
2022/06/15 10:41:49;;;;;;;4.47;2.47;;;;;;;27.57;33.04;98175.63;5054550;28;20208;-83
2022/06/15 10:44:28;;;;;;;3.22;2.30;;;;;;;27.61;34.55;98183.16;5053936;28;20212;-84
2022/06/15 10:47:00;;;;;;;3.55;2.90;;;;;;;27.65;35.29;98164.53;5054196;28;20215;-84
2022/06/15 10:49:31;;;;;;;2.33;2.10;;;;;;;27.79;35.25;98160.78;5052409;28;20215;-81
2022/06/15 10:51:57;;;;;;;4.93;2.80;;;;;;;27.90;35.34;98170.97;5053736;28;20231;-81
2022/06/15 10:54:33;;;;;;;2.90;2.70;;;;;;;27.96;34.47;98151.09;5054035;28;20219;-82
2022/06/15 11:03:08;;;;;;;3.75;3.10;;;;;;;28.27;37.21;98164.75;5053874;28;20779;-80
2022/06/15 11:05:35;;;;;;;4.35;3.47;;;;;;;28.30;36.73;98156.19;5054180;28;20219;-83
2022/06/15 11:08:07;;;;;;;3.63;2.97;;;;;;;28.27;37.64;98153.88;5054255;28;20212;-82
2022/06/15 11:10:37;;;;;;;3.65;2.83;;;;;;;28.38;36.81;98155.97;5053938;28;20607;-80
2022/06/15 11:13:06;;;;;;;4.30;2.92;;;;;;;28.30;36.36;98148.03;5053695;28;20215;-79
2022/06/15 11:18:30;;;;;;;5.20;2.97;;;;;;;28.32;35.90;98146.75;5053669;28;20228;-80
2022/06/15 11:21:04;;;;;;;2.75;2.55;;;;;;;28.52;35.27;98141.22;5053943;28;20258;-84
2022/06/15 11:23:41;;;;;;;2.95;2.50;;;;;;;28.45;34.28;98146.72;5053427;28;20218;-84
2022/06/15 11:29:19;;;;;;;2.70;2.50;;;;;;;28.57;34.84;98138.69;5053290;28;20314;-79
2022/06/15 11:31:46;;;;;;;3.30;2.80;;;;;;;28.51;34.29;98143.13;5054050;28;20227;-80
2022/06/15 11:34:19;;;;;;;4.38;3.00;;;;;;;28.53;34.40;98142.91;5053480;28;20208;-80
2022/06/15 11:36:51;;;;;;;3.20;2.90;;;;;;;28.50;35.87;98138.72;5053733;28;20212;-81
2022/06/15 11:39:23;;;;;;;5.60;3.10;;;;;;;28.66;35.74;98142.81;5052340;28;20270;-81
2022/06/15 11:41:53;;;;;;;3.05;2.70;;;;;;;28.74;34.47;98142.56;5053061;28;20216;-81
2022/06/15 11:44:22;;;;;;;3.42;2.90;;;;;;;28.71;34.57;98135.66;5052975;28;20209;-80
2022/06/15 11:47:07;;;;;;;3.72;2.45;;;;;;;28.79;36.60;98138.13;5053515;28;20208;-80
2022/06/15 11:49:45;;;;;;;3.20;2.70;;;;;;;28.94;36.09;98140.53;5052979;28;20215;-81
2022/06/15 11:52:38;;;;;;;3.65;3.33;;;;;;;28.97;34.92;98137.41;5053172;28;20671;-81
2022/06/15 11:55:28;;;;;;;4.20;2.60;;;;;;;29.12;34.00;98133.28;5052926;28;20215;-81
2022/06/15 11:58:17;;;;;;;2.92;2.72;;;;;;;29.16;32.86;98144.56;5053335;28;20587;-80
2022/06/15 12:00:49;;;;;;;2.70;2.50;;;;;;;29.19;33.31;98138.66;5052986;28;20266;-85
2022/06/15 12:03:38;;;;;;;2.38;2.17;;;;;;;29.12;31.99;98138.75;5053607;28;20207;-79
2022/06/15 12:06:11;;;;;;;3.15;2.35;;;;;;;29.12;32.10;98135.16;5051561;28;20214;-80